createdAt,value
2019-05-01T00:01:40.767Z,47.50
2019-05-01T00:04:29.145Z,46.20
2019-05-01T00:07:02.587Z,51.57
2019-05-01T00:09:33.365Z,38.40
2019-05-01T00:12:03.973Z,45.73
2019-05-01T00:14:36.352Z,41.73
2019-05-01T00:17:07.026Z,41.70
2019-05-01T00:19:37.675Z,48.13
2019-05-01T00:22:08.247Z,47.57
2019-05-01T00:24:38.792Z,44.80
2019-05-01T00:27:09.373Z,44.57
2019-05-01T00:29:39.923Z,39.40
2019-05-01T00:32:10.496Z,47.20
2019-05-01T00:34:41.083Z,47.67
2019-05-01T00:37:11.602Z,45.23
2019-05-01T00:39:42.071Z,45.43
2019-05-01T00:42:12.692Z,43.20
2019-05-01T00:44:43.251Z,54.30
2019-05-01T00:47:13.795Z,44.40
2019-05-01T00:49:44.363Z,50.90
2019-05-01T00:52:14.862Z,53.03
2019-05-01T00:54:46.976Z,65.43
2019-05-01T00:57:34.432Z,64.57
2019-05-01T01:00:24.875Z,67.17
2019-05-01T01:02:56.233Z,60.87
2019-05-01T01:05:26.729Z,66.70
2019-05-01T01:07:57.292Z,58.20
2019-05-01T01:10:27.791Z,57.60
2019-05-01T01:12:58.483Z,53.43
2019-05-01T01:15:29.133Z,54.47
2019-05-01T01:17:59.699Z,54.90
2019-05-01T01:20:31.525Z,47.63
2019-05-01T01:23:02.385Z,49.13
2019-05-01T01:25:33.955Z,50.83
2019-05-01T01:28:04.839Z,48.60
2019-05-01T01:30:35.314Z,44.17
2019-05-01T01:33:05.889Z,42.37
2019-05-01T01:35:36.355Z,50.07
2019-05-01T01:38:06.839Z,45.23
2019-05-01T01:40:37.580Z,45.47
2019-05-01T01:43:26.013Z,42.67
2019-05-01T01:45:58.424Z,41.93
2019-05-01T01:48:29.111Z,50.47
2019-05-01T01:51:00.222Z,45.33
2019-05-01T01:53:31.084Z,43.10
2019-05-01T01:56:01.642Z,44.17
2019-05-01T01:58:32.450Z,35.67
2019-05-01T02:01:28.093Z,37.33
2019-05-01T02:04:03.948Z,40.20
2019-05-01T02:06:34.520Z,36.90
2019-05-01T02:09:07.060Z,43.10
2019-05-01T02:11:39.156Z,41.10
2019-05-01T02:14:09.619Z,45.03
2019-05-01T02:16:40.209Z,37.30
2019-05-01T02:19:10.851Z,40.57
2019-05-01T02:21:41.451Z,42.17
2019-05-01T02:24:12.067Z,40.87
2019-05-01T02:26:46.129Z,44.80
2019-05-01T02:29:31.123Z,42.50
2019-05-01T02:32:01.983Z,40.70
2019-05-01T02:34:33.359Z,43.87
2019-05-01T02:37:05.015Z,40.37
2019-05-01T02:39:37.512Z,52.73
2019-05-01T02:42:09.795Z,55.57
2019-05-01T02:44:47.286Z,61.27
2019-05-01T02:47:23.720Z,58.40
2019-05-01T02:50:06.123Z,60.83
2019-05-01T02:52:39.575Z,59.00
2019-05-01T02:55:36.177Z,53.70
2019-05-01T02:58:09.831Z,63.97
2019-05-01T03:00:40.687Z,60.00
2019-05-01T03:03:12.232Z,65.17
2019-05-01T03:05:42.721Z,58.00
2019-05-01T03:08:13.311Z,65.00
2019-05-01T03:10:43.812Z,62.47
2019-05-01T03:13:14.307Z,68.20
2019-05-01T03:15:44.863Z,66.83
2019-05-01T03:18:30.411Z,66.40
2019-05-01T03:21:26.267Z,61.83
2019-05-01T03:24:01.164Z,66.80
2019-05-01T03:26:32.064Z,71.47
2019-05-01T03:29:02.562Z,71.30
2019-05-01T03:31:33.162Z,69.03
2019-05-01T03:34:03.745Z,81.57
2019-05-01T03:36:34.265Z,76.70
2019-05-01T03:39:06.143Z,72.37
2019-05-01T03:41:36.921Z,75.90
2019-05-01T03:44:08.447Z,74.30
2019-05-01T03:46:39.062Z,71.67
2019-05-01T03:49:09.936Z,74.20
2019-05-01T03:51:41.629Z,75.60
2019-05-01T03:54:13.162Z,73.23
2019-05-01T03:56:44.287Z,70.97
2019-05-01T03:59:15.202Z,76.87
2019-05-01T04:01:55.227Z,77.83
2019-05-01T04:04:28.154Z,74.33
2019-05-01T04:06:59.017Z,71.07
2019-05-01T04:09:29.576Z,67.97
2019-05-01T04:12:00.096Z,66.53
2019-05-01T04:14:31.637Z,64.60
2019-05-01T04:17:10.125Z,69.50
2019-05-01T04:19:40.928Z,74.73
2019-05-01T04:22:12.973Z,78.37
2019-05-01T04:24:44.221Z,81.93
2019-05-01T04:27:21.203Z,79.63
2019-05-01T04:30:08.962Z,79.43
2019-05-01T04:32:52.307Z,78.77
2019-05-01T04:35:19.514Z,78.23
2019-05-01T04:37:50.134Z,78.73
2019-05-01T04:40:21.546Z,74.97
2019-05-01T04:42:52.122Z,80.57
2019-05-01T04:45:23.425Z,85.77
2019-05-01T04:47:54.437Z,96.93
2019-05-01T04:50:25.225Z,95.33
2019-05-01T04:52:56.273Z,94.17
2019-05-01T04:55:27.455Z,111.27
2019-05-01T04:57:58.177Z,105.30
2019-05-01T05:00:29.332Z,98.60
2019-05-01T05:03:05.219Z,90.13
2019-05-01T05:05:36.328Z,107.83
2019-05-01T05:08:07.065Z,92.67
2019-05-01T05:10:39.093Z,90.93
2019-05-01T05:13:23.359Z,97.00
2019-05-01T05:16:08.855Z,89.87
2019-05-01T05:18:39.312Z,89.60
2019-05-01T05:21:10.256Z,87.07
2019-05-01T05:23:40.903Z,92.27
2019-05-01T05:26:11.399Z,83.90
2019-05-01T05:28:43.582Z,88.47
2019-05-01T05:31:14.753Z,81.17
2019-05-01T05:33:48.697Z,82.20
2019-05-01T05:36:20.114Z,73.87
2019-05-01T05:39:19.198Z,65.47
2019-05-01T05:41:50.919Z,73.20
2019-05-01T05:44:21.575Z,67.57
2019-05-01T05:46:52.126Z,69.03
2019-05-01T05:49:23.454Z,69.20
2019-05-01T05:52:03.040Z,75.03
2019-05-01T05:54:59.464Z,65.63
2019-05-01T05:57:53.346Z,70.43
2019-05-01T06:00:47.667Z,66.47
2019-05-01T06:03:38.877Z,61.67
2019-05-01T06:06:22.227Z,60.63
2019-05-01T06:08:54.972Z,53.43
2019-05-01T06:11:50.087Z,61.53
2019-05-01T06:14:50.909Z,55.53
2019-05-01T06:17:33.024Z,57.53
2019-05-01T06:20:13.972Z,57.07
2019-05-01T06:23:02.583Z,57.07
2019-05-01T06:25:36.477Z,54.27
2019-05-01T06:28:07.308Z,50.77
2019-05-01T06:30:41.991Z,47.07
2019-05-01T06:33:11.282Z,52.37
2019-05-01T06:35:42.075Z,55.03
2019-05-01T06:38:16.677Z,50.93
2019-05-01T06:40:53.221Z,45.43
2019-05-01T06:43:35.578Z,45.87
2019-05-01T06:46:40.113Z,40.23
2019-05-01T06:49:28.934Z,38.80
2019-05-01T06:51:57.957Z,45.73
2019-05-01T06:54:30.349Z,43.30
2019-05-01T06:57:02.555Z,38.27
2019-05-01T06:59:35.062Z,40.50
2019-05-01T07:02:06.302Z,41.90
2019-05-01T07:04:38.152Z,34.87
2019-05-01T07:07:18.569Z,35.97
2019-05-01T07:09:44.127Z,40.23
2019-05-01T07:12:18.869Z,36.07
2019-05-01T07:14:50.805Z,35.10
2019-05-01T07:17:23.263Z,39.57
2019-05-01T07:20:19.301Z,33.03
2019-05-01T07:22:49.766Z,39.60
2019-05-01T07:25:20.494Z,37.13
2019-05-01T07:27:54.019Z,39.37
2019-05-01T07:30:42.577Z,33.03
2019-05-01T07:33:16.609Z,29.47
2019-05-01T07:35:45.940Z,34.67
2019-05-01T07:38:16.874Z,36.13
2019-05-01T07:40:47.334Z,30.63
2019-05-01T07:43:39.757Z,33.17
2019-05-01T07:46:28.126Z,30.37
2019-05-01T07:48:58.965Z,36.83
2019-05-01T07:51:29.872Z,29.37
2019-05-01T07:54:04.052Z,25.83
2019-05-01T07:56:33.994Z,27.83
2019-05-01T07:59:04.711Z,25.37
2019-05-01T08:01:54.651Z,30.30
2019-05-01T08:04:35.976Z,35.17
2019-05-01T08:06:58.696Z,29.50
2019-05-01T08:09:29.323Z,29.50
2019-05-01T08:11:59.879Z,24.80
2019-05-01T08:14:30.445Z,27.47
2019-05-01T08:17:00.939Z,31.17
2019-05-01T08:19:39.531Z,30.50
2019-05-01T08:22:16.359Z,26.70
2019-05-01T08:24:46.853Z,54.60
2019-05-01T08:27:36.505Z,25.80
2019-05-01T08:30:26.421Z,23.60
2019-05-01T08:33:18.807Z,18.87
2019-05-01T08:35:49.422Z,25.03
2019-05-01T08:38:20.194Z,23.10
2019-05-01T08:40:55.083Z,21.67
2019-05-01T08:43:22.988Z,29.43
2019-05-01T08:46:16.472Z,22.37
2019-05-01T08:48:55.253Z,23.67
2019-05-01T08:51:30.130Z,23.70
2019-05-01T08:53:59.523Z,17.63
2019-05-01T08:56:30.134Z,24.23
2019-05-01T08:59:00.558Z,25.60
2019-05-01T09:01:31.146Z,21.57
2019-05-01T09:04:12.329Z,25.33
2019-05-01T09:06:35.068Z,19.20
2019-05-01T09:09:09.903Z,65.63
2019-05-01T09:11:40.671Z,23.33
2019-05-01T09:14:11.200Z,29.50
2019-05-01T09:16:41.816Z,11.07
2019-05-01T09:19:12.468Z,10.93
2019-05-01T09:21:44.293Z,10.53
2019-05-01T09:24:14.911Z,10.73
2019-05-01T09:26:58.770Z,11.77
2019-05-01T09:29:36.601Z,8.23
2019-05-01T09:32:10.278Z,5.27
2019-05-01T09:34:39.676Z,8.30
2019-05-01T09:37:10.266Z,7.00
2019-05-01T09:39:40.973Z,14.30
2019-05-01T09:42:12.309Z,5.40
2019-05-01T09:44:42.898Z,4.27
2019-05-01T09:47:14.385Z,9.10
2019-05-01T09:49:48.695Z,8.23
2019-05-01T09:52:42.005Z,6.03
2019-05-01T09:55:17.812Z,6.27
2019-05-01T09:57:49.040Z,17.27
2019-05-01T10:00:27.312Z,15.40
2019-05-01T10:02:57.911Z,11.60
2019-05-01T10:05:29.328Z,7.37
2019-05-01T10:08:03.788Z,8.57
2019-05-01T10:10:32.335Z,17.07
2019-05-01T10:13:02.764Z,8.37
2019-05-01T10:15:33.276Z,5.77
2019-05-01T10:18:03.895Z,4.67
2019-05-01T10:20:34.390Z,5.30
2019-05-01T10:23:07.758Z,6.70
2019-05-01T10:25:42.792Z,8.90
2019-05-01T10:28:18.263Z,6.07
2019-05-01T10:31:11.997Z,7.37
2019-05-01T10:33:42.701Z,12.90
2019-05-01T10:36:32.101Z,8.60
2019-05-01T10:39:04.616Z,8.23
2019-05-01T10:41:35.863Z,18.50
2019-05-01T10:44:06.503Z,5.53
2019-05-01T10:46:37.049Z,21.20
2019-05-01T10:49:07.622Z,9.37
2019-05-01T10:51:38.257Z,13.40
2019-05-01T10:54:08.961Z,8.13
2019-05-01T10:56:39.494Z,6.63
2019-05-01T10:59:10.075Z,7.97
2019-05-01T11:01:48.424Z,7.63
2019-05-01T11:04:20.002Z,14.33
2019-05-01T11:06:50.786Z,4.53
2019-05-01T11:09:21.289Z,32.20
2019-05-01T11:11:51.861Z,2.40
2019-05-01T11:14:22.543Z,4.67
2019-05-01T11:16:53.100Z,5.07
2019-05-01T11:19:23.716Z,3.70
2019-05-01T11:21:54.333Z,7.30
2019-05-01T11:24:24.913Z,7.83
2019-05-01T11:26:55.452Z,6.87
2019-05-01T11:29:25.924Z,7.07
2019-05-01T11:32:02.352Z,7.67
2019-05-01T11:35:06.972Z,3.47
2019-05-01T11:37:51.883Z,4.80
2019-05-01T11:40:35.482Z,9.73
2019-05-01T11:43:05.965Z,5.23
2019-05-01T11:45:37.106Z,5.63
2019-05-01T11:48:07.696Z,6.87
2019-05-01T11:50:38.486Z,6.53
2019-05-01T11:53:08.971Z,5.23
2019-05-01T11:55:39.491Z,4.90
2019-05-01T11:58:10.068Z,7.27
2019-05-01T12:00:40.622Z,18.37
2019-05-01T12:03:11.196Z,7.07
2019-05-01T12:05:41.659Z,5.23
2019-05-01T12:08:12.238Z,11.40
2019-05-01T12:10:42.731Z,55.47
2019-05-01T12:13:14.335Z,17.37
2019-05-01T12:15:46.480Z,8.43
2019-05-01T12:18:16.939Z,10.07
2019-05-01T12:20:47.578Z,6.60
2019-05-01T12:23:18.478Z,11.00
2019-05-01T12:25:49.211Z,9.47
2019-05-01T12:28:19.923Z,3.60
2019-05-01T12:30:50.461Z,6.30
2019-05-01T12:33:20.942Z,4.27
2019-05-01T12:35:52.984Z,7.37
2019-05-01T12:38:23.659Z,7.00
2019-05-01T12:41:11.889Z,5.80
2019-05-01T12:43:42.396Z,5.67
2019-05-01T12:46:31.916Z,8.73
2019-05-01T12:49:02.512Z,8.50
2019-05-01T12:51:33.124Z,8.57
2019-05-01T12:54:19.099Z,10.13
2019-05-01T12:56:55.746Z,6.80
2019-05-01T12:59:26.508Z,7.33
2019-05-01T13:01:58.356Z,6.30
2019-05-01T13:04:29.949Z,5.90
2019-05-01T13:07:01.256Z,6.53
2019-05-01T13:09:31.784Z,3.47
2019-05-01T13:12:02.218Z,6.97
2019-05-01T13:14:32.814Z,11.30
2019-05-01T13:17:03.306Z,9.03
2019-05-01T13:19:34.761Z,5.37
2019-05-01T13:22:05.466Z,4.10
2019-05-01T13:24:38.588Z,7.53
2019-05-01T13:27:17.408Z,5.13
2019-05-01T13:30:12.988Z,5.17
2019-05-01T13:32:45.880Z,3.20
2019-05-01T13:35:16.354Z,9.47
2019-05-01T13:37:46.946Z,7.73
2019-05-01T13:40:18.404Z,11.90
2019-05-01T13:42:49.020Z,5.33
2019-05-01T13:45:19.522Z,7.87
2019-05-01T13:47:49.990Z,9.07
2019-05-01T13:50:20.666Z,5.93
2019-05-01T13:52:51.366Z,10.80
2019-05-01T13:55:22.146Z,7.47
2019-05-01T13:57:52.738Z,6.73
2019-05-01T14:00:25.089Z,4.50
2019-05-01T14:02:55.762Z,7.07
2019-05-01T14:05:27.311Z,5.67
2019-05-01T14:07:58.040Z,8.40
2019-05-01T14:10:28.785Z,8.40
2019-05-01T14:12:59.399Z,11.27
2019-05-01T14:15:29.983Z,10.30
2019-05-01T14:18:00.623Z,8.70
2019-05-01T14:20:48.226Z,4.43
2019-05-01T14:23:40.504Z,7.53
2019-05-01T14:26:11.336Z,4.33
2019-05-01T14:28:42.120Z,5.10
2019-05-01T14:31:12.694Z,3.63
2019-05-01T14:33:43.169Z,6.73
2019-05-01T14:36:13.728Z,7.37
2019-05-01T14:38:44.361Z,5.77
2019-05-01T14:41:14.903Z,6.13
2019-05-01T14:43:45.712Z,8.93
2019-05-01T14:46:16.442Z,12.97
2019-05-01T14:48:46.994Z,5.73
2019-05-01T14:51:17.487Z,7.83
2019-05-01T14:53:48.396Z,4.63
2019-05-01T14:56:18.938Z,3.57
2019-05-01T14:58:49.818Z,13.40
2019-05-01T15:01:20.296Z,6.07
2019-05-01T15:03:51.066Z,4.93
2019-05-01T15:06:22.003Z,6.30
2019-05-01T15:08:52.644Z,9.20
2019-05-01T15:11:23.152Z,4.23
2019-05-01T15:14:10.145Z,7.83
2019-05-01T15:16:46.236Z,3.90
2019-05-01T15:19:20.372Z,6.17
2019-05-01T15:21:50.974Z,8.17
2019-05-01T15:24:21.763Z,6.70
2019-05-01T15:26:53.352Z,5.77
2019-05-01T15:29:23.906Z,4.47
2019-05-01T15:31:54.804Z,5.33
2019-05-01T15:34:25.688Z,7.13
2019-05-01T15:36:56.418Z,4.70
2019-05-01T15:39:32.484Z,9.90
2019-05-01T15:42:13.758Z,11.80
2019-05-01T15:44:44.402Z,3.07
2019-05-01T15:47:15.165Z,13.20
2019-05-01T15:49:46.718Z,9.50
2019-05-01T15:52:17.277Z,15.67
2019-05-01T15:54:47.762Z,8.27
2019-05-01T15:57:18.247Z,8.47
2019-05-01T15:59:48.969Z,15.13
2019-05-01T16:02:19.386Z,13.47
2019-05-01T16:04:49.861Z,11.50
2019-05-01T16:07:20.285Z,8.10
2019-05-01T16:09:50.771Z,9.33
2019-05-01T16:12:35.356Z,12.33
2019-05-01T16:15:10.844Z,24.83
2019-05-01T16:17:41.391Z,6.77
2019-05-01T16:20:12.135Z,7.00
2019-05-01T16:22:42.621Z,7.10
2019-05-01T16:25:13.235Z,14.13
2019-05-01T16:27:43.757Z,8.40
2019-05-01T16:30:16.286Z,9.60
2019-05-01T16:32:46.849Z,7.13
2019-05-01T16:35:17.365Z,8.33
2019-05-01T16:37:48.036Z,9.83
2019-05-01T16:40:36.177Z,8.27
2019-05-01T16:43:09.372Z,8.13
2019-05-01T16:45:39.923Z,11.93
2019-05-01T16:48:10.531Z,9.67
2019-05-01T16:50:41.164Z,13.83
2019-05-01T16:53:11.856Z,6.70
2019-05-01T16:55:44.282Z,7.07
2019-05-01T16:58:15.296Z,8.30
2019-05-01T17:01:08.415Z,10.63
2019-05-01T17:03:56.703Z,6.10
2019-05-01T17:06:37.393Z,10.63
2019-05-01T17:09:38.128Z,7.50
2019-05-01T17:12:10.894Z,6.27
2019-05-01T17:14:40.813Z,7.67
2019-05-01T17:17:15.641Z,6.37
2019-05-01T17:19:46.191Z,11.53
2019-05-01T17:22:16.937Z,6.83
2019-05-01T17:24:47.611Z,12.37
2019-05-01T17:27:19.172Z,7.23
2019-05-01T17:29:49.598Z,7.60
2019-05-01T17:32:20.196Z,8.40
2019-05-01T17:34:50.670Z,8.50
2019-05-01T17:37:21.184Z,12.00
2019-05-01T17:39:51.744Z,8.73
2019-05-01T17:42:22.295Z,10.27
2019-05-01T17:44:55.974Z,12.20
2019-05-01T17:47:26.942Z,12.20
2019-05-01T17:49:57.440Z,10.50
2019-05-01T17:52:27.908Z,19.90
2019-05-01T17:55:01.263Z,14.23
2019-05-01T17:57:33.523Z,16.50
2019-05-01T18:00:04.432Z,12.07
2019-05-01T18:02:44.411Z,12.20
2019-05-01T18:05:40.313Z,8.63
2019-05-01T18:08:10.792Z,10.47
2019-05-01T18:10:41.382Z,15.43
2019-05-01T18:13:11.931Z,17.43
2019-05-01T18:15:42.590Z,18.07
2019-05-01T18:18:15.096Z,18.67
2019-05-01T18:20:45.150Z,56.93
2019-05-01T18:23:29.925Z,36.83
2019-05-01T18:26:08.727Z,16.90
2019-05-01T18:28:47.078Z,17.17
2019-05-01T18:31:22.122Z,11.50
2019-05-01T18:33:57.111Z,16.00
2019-05-01T18:36:31.728Z,34.77
2019-05-01T18:39:16.544Z,29.13
2019-05-01T18:41:49.393Z,10.73
2019-05-01T18:44:20.242Z,12.23
2019-05-01T18:46:50.743Z,12.20
2019-05-01T18:49:21.526Z,15.57
2019-05-01T18:51:52.372Z,12.03
2019-05-01T18:54:23.169Z,12.37
2019-05-01T18:56:54.755Z,14.17
2019-05-01T18:59:25.497Z,240.47
2019-05-01T19:01:56.207Z,17.57
2019-05-01T19:04:26.808Z,25.90
2019-05-01T19:06:57.386Z,24.13
2019-05-01T19:09:30.254Z,12.73
2019-05-01T19:12:00.428Z,13.13
2019-05-01T19:14:31.251Z,16.20
2019-05-01T19:17:01.872Z,12.00
2019-05-01T19:19:32.547Z,12.90
2019-05-01T19:22:03.194Z,19.27
2019-05-01T19:24:37.991Z,20.80
2019-05-01T19:27:06.451Z,24.30
2019-05-01T19:29:37.428Z,24.80
2019-05-01T19:32:08.762Z,22.47
2019-05-01T19:34:39.475Z,20.03
2019-05-01T19:37:10.318Z,23.87
2019-05-01T19:39:43.932Z,25.60
2019-05-01T19:42:13.497Z,23.83
2019-05-01T19:44:44.399Z,27.00
2019-05-01T19:47:15.016Z,27.33
2019-05-01T19:49:46.195Z,24.57
2019-05-01T19:52:16.814Z,220.60
2019-05-01T19:54:47.435Z,86.37
2019-05-01T19:57:18.046Z,29.37
2019-05-01T19:59:48.490Z,23.77
2019-05-01T20:02:22.092Z,31.57
2019-05-01T20:04:52.407Z,23.83
2019-05-01T20:07:22.988Z,23.83
2019-05-01T20:09:57.051Z,25.97
2019-05-01T20:12:25.799Z,24.70
2019-05-01T20:14:56.501Z,27.60
2019-05-01T20:17:27.080Z,27.77
2019-05-01T20:19:57.860Z,31.70
2019-05-01T20:22:28.427Z,31.27
2019-05-01T20:24:59.221Z,25.77
2019-05-01T20:27:29.765Z,21.13
2019-05-01T20:30:00.400Z,20.60
2019-05-01T20:32:30.959Z,22.67
2019-05-01T20:35:01.449Z,14.57
2019-05-01T20:37:32.245Z,15.93
2019-05-01T20:40:10.792Z,13.43
2019-05-01T20:42:36.562Z,16.17
2019-05-01T20:45:13.038Z,12.47
2019-05-01T20:47:45.462Z,18.20
2019-05-01T20:50:14.001Z,10.83
2019-05-01T20:52:44.769Z,13.07
2019-05-01T20:55:15.497Z,15.03
2019-05-01T20:57:46.993Z,17.10
2019-05-01T21:00:18.684Z,15.53
2019-05-01T21:02:49.330Z,15.33
2019-05-01T21:05:27.793Z,14.97
2019-05-01T21:08:08.627Z,15.87
2019-05-01T21:10:52.019Z,17.50
2019-05-01T21:13:23.468Z,16.43
2019-05-01T21:15:56.285Z,18.70
2019-05-01T21:18:27.764Z,20.90
2019-05-01T21:20:58.369Z,19.33
2019-05-01T21:23:28.847Z,18.93
2019-05-01T21:25:59.769Z,16.07
2019-05-01T21:28:30.355Z,23.23
2019-05-01T21:31:01.006Z,18.47
2019-05-01T21:33:33.996Z,20.73
2019-05-01T21:36:08.351Z,23.70
2019-05-01T21:38:37.393Z,23.53
2019-05-01T21:41:07.897Z,19.63
2019-05-01T21:43:38.337Z,19.07
2019-05-01T21:46:08.945Z,21.77
2019-05-01T21:48:39.542Z,21.07
2019-05-01T21:51:10.227Z,22.77
2019-05-01T21:53:42.769Z,23.70
2019-05-01T21:56:12.840Z,29.63
2019-05-01T21:58:45.183Z,25.37
2019-05-01T22:01:15.493Z,22.67
2019-05-01T22:03:46.107Z,25.97
2019-05-01T22:06:16.791Z,21.67
2019-05-01T22:08:47.186Z,26.30
2019-05-01T22:11:17.837Z,22.10
2019-05-01T22:13:48.610Z,18.57
2019-05-01T22:16:23.723Z,20.83
2019-05-01T22:19:14.842Z,15.97
2019-05-01T22:22:02.641Z,16.07
2019-05-01T22:24:53.239Z,19.07
2019-05-01T22:27:29.837Z,14.37
2019-05-01T22:30:12.472Z,18.43
2019-05-01T22:32:48.412Z,17.57
2019-05-01T22:35:24.347Z,13.30
2019-05-01T22:37:54.952Z,18.50
2019-05-01T22:40:43.008Z,13.77
2019-05-01T22:43:13.670Z,15.67
2019-05-01T22:45:44.278Z,14.40
2019-05-01T22:48:14.904Z,15.97
2019-05-01T22:50:46.251Z,14.97
2019-05-01T22:53:17.227Z,15.37
2019-05-01T22:55:47.888Z,15.93
2019-05-01T22:58:18.442Z,15.13
2019-05-01T23:00:51.475Z,16.07
2019-05-01T23:03:42.319Z,17.50
2019-05-01T23:06:13.227Z,16.07
2019-05-01T23:08:43.729Z,15.93
2019-05-01T23:11:20.038Z,15.13
2019-05-01T23:13:46.439Z,15.73
2019-05-01T23:16:18.635Z,14.47
2019-05-01T23:18:51.858Z,15.80
2019-05-01T23:21:21.650Z,15.43
2019-05-01T23:23:52.207Z,16.77
2019-05-01T23:26:23.517Z,15.50
2019-05-01T23:28:54.083Z,15.17
2019-05-01T23:31:24.847Z,16.37
2019-05-01T23:33:55.499Z,17.53
2019-05-01T23:36:26.209Z,20.63
2019-05-01T23:38:56.819Z,17.73
2019-05-01T23:41:44.678Z,18.80
2019-05-01T23:44:03.453Z,17.83
2019-05-01T23:46:31.658Z,18.70
2019-05-01T23:49:02.182Z,17.97
2019-05-01T23:51:32.680Z,19.57
2019-05-01T23:54:03.120Z,19.10
2019-05-01T23:56:35.043Z,20.60
2019-05-01T23:59:05.814Z,17.80
